sensor_id;sensor_type;location;lat;lon;timestamp;P1;durP1;ratioP1;P2;durP2;ratioP2
20124;SDS011;10223;50.862;4.360;2023-03-31T00:01:24;15.13;;;2.40;;
20124;SDS011;10223;50.862;4.360;2023-03-31T00:03:51;17.07;;;2.73;;
20124;SDS011;10223;50.862;4.360;2023-03-31T00:06:26;12.83;;;2.97;;
20124;SDS011;10223;50.862;4.360;2023-03-31T00:08:53;15.43;;;2.47;;
20124;SDS011;10223;50.862;4.360;2023-03-31T00:11:27;10.70;;;2.63;;
20124;SDS011;10223;50.862;4.360;2023-03-31T00:13:54;13.83;;;2.73;;
20124;SDS011;10223;50.862;4.360;2023-03-31T00:16:21;20.23;;;3.87;;
20124;SDS011;10223;50.862;4.360;2023-03-31T00:18:48;12.77;;;2.47;;
20124;SDS011;10223;50.862;4.360;2023-03-31T00:21:16;18.90;;;2.40;;
20124;SDS011;10223;50.862;4.360;2023-03-31T00:23:54;15.37;;;4.03;;
20124;SDS011;10223;50.862;4.360;2023-03-31T00:26:22;20.03;;;2.90;;
20124;SDS011;10223;50.862;4.360;2023-03-31T00:28:51;13.57;;;3.17;;
20124;SDS011;10223;50.862;4.360;2023-03-31T00:31:18;13.23;;;2.63;;
20124;SDS011;10223;50.862;4.360;2023-03-31T00:33:46;12.80;;;2.50;;
20124;SDS011;10223;50.862;4.360;2023-03-31T00:36:13;13.90;;;2.67;;
20124;SDS011;10223;50.862;4.360;2023-03-31T00:38:45;10.30;;;2.07;;
20124;SDS011;10223;50.862;4.360;2023-03-31T00:41:12;8.30;;;2.70;;
20124;SDS011;10223;50.862;4.360;2023-03-31T00:43:39;12.53;;;2.00;;
20124;SDS011;10223;50.862;4.360;2023-03-31T00:46:12;13.53;;;2.47;;
20124;SDS011;10223;50.862;4.360;2023-03-31T00:48:44;14.80;;;2.60;;
20124;SDS011;10223;50.862;4.360;2023-03-31T00:51:15;15.93;;;2.93;;
20124;SDS011;10223;50.862;4.360;2023-03-31T00:53:43;18.60;;;3.33;;
20124;SDS011;10223;50.862;4.360;2023-03-31T00:56:15;12.50;;;2.20;;
20124;SDS011;10223;50.862;4.360;2023-03-31T00:58:43;14.00;;;3.27;;
20124;SDS011;10223;50.862;4.360;2023-03-31T01:01:13;17.30;;;3.70;;
20124;SDS011;10223;50.862;4.360;2023-03-31T01:03:44;20.17;;;4.77;;
20124;SDS011;10223;50.862;4.360;2023-03-31T01:06:12;15.03;;;3.10;;
20124;SDS011;10223;50.862;4.360;2023-03-31T01:08:43;17.43;;;3.33;;
20124;SDS011;10223;50.862;4.360;2023-03-31T01:11:13;18.27;;;2.80;;
20124;SDS011;10223;50.862;4.360;2023-03-31T01:13:41;13.67;;;2.90;;
20124;SDS011;10223;50.862;4.360;2023-03-31T01:16:10;16.53;;;2.77;;
20124;SDS011;10223;50.862;4.360;2023-03-31T01:18:38;11.63;;;2.20;;
20124;SDS011;10223;50.862;4.360;2023-03-31T01:24:26;14.90;;;2.30;;
20124;SDS011;10223;50.862;4.360;2023-03-31T01:27:25;11.27;;;2.40;;
20124;SDS011;10223;50.862;4.360;2023-03-31T01:30:15;11.83;;;2.20;;
20124;SDS011;10223;50.862;4.360;2023-03-31T01:33:06;18.90;;;3.00;;
20124;SDS011;10223;50.862;4.360;2023-03-31T01:39:10;8.53;;;1.90;;
20124;SDS011;10223;50.862;4.360;2023-03-31T01:41:49;9.60;;;2.17;;
20124;SDS011;10223;50.862;4.360;2023-03-31T01:44:27;9.97;;;1.97;;
20124;SDS011;10223;50.862;4.360;2023-03-31T01:47:00;12.90;;;2.50;;
20124;SDS011;10223;50.862;4.360;2023-03-31T01:49:33;14.23;;;2.23;;
20124;SDS011;10223;50.862;4.360;2023-03-31T01:52:07;10.47;;;2.20;;
20124;SDS011;10223;50.862;4.360;2023-03-31T01:54:45;8.53;;;1.87;;
20124;SDS011;10223;50.862;4.360;2023-03-31T01:57:17;10.03;;;1.87;;
20124;SDS011;10223;50.862;4.360;2023-03-31T01:59:50;15.00;;;2.70;;
20124;SDS011;10223;50.862;4.360;2023-03-31T02:02:23;11.57;;;2.33;;
20124;SDS011;10223;50.862;4.360;2023-03-31T02:04:54;8.40;;;1.40;;
20124;SDS011;10223;50.862;4.360;2023-03-31T02:07:26;10.50;;;2.00;;
20124;SDS011;10223;50.862;4.360;2023-03-31T02:09:58;5.87;;;1.90;;
20124;SDS011;10223;50.862;4.360;2023-03-31T02:12:30;4.97;;;1.30;;
20124;SDS011;10223;50.862;4.360;2023-03-31T02:14:59;9.67;;;2.00;;
20124;SDS011;10223;50.862;4.360;2023-03-31T02:17:29;9.57;;;2.03;;
20124;SDS011;10223;50.862;4.360;2023-03-31T02:19:58;11.57;;;1.90;;
20124;SDS011;10223;50.862;4.360;2023-03-31T02:22:32;11.37;;;1.70;;
20124;SDS011;10223;50.862;4.360;2023-03-31T02:25:01;8.40;;;1.60;;
20124;SDS011;10223;50.862;4.360;2023-03-31T02:27:31;7.73;;;1.97;;
20124;SDS011;10223;50.862;4.360;2023-03-31T02:30:00;7.83;;;1.53;;
20124;SDS011;10223;50.862;4.360;2023-03-31T02:32:28;9.43;;;1.70;;
20124;SDS011;10223;50.862;4.360;2023-03-31T02:34:58;4.50;;;1.20;;
20124;SDS011;10223;50.862;4.360;2023-03-31T02:37:26;5.40;;;1.00;;
20124;SDS011;10223;50.862;4.360;2023-03-31T02:39:55;12.37;;;1.70;;
20124;SDS011;10223;50.862;4.360;2023-03-31T02:42:24;9.97;;;1.60;;
20124;SDS011;10223;50.862;4.360;2023-03-31T02:44:52;10.37;;;2.03;;
20124;SDS011;10223;50.862;4.360;2023-03-31T02:47:19;5.30;;;1.43;;
20124;SDS011;10223;50.862;4.360;2023-03-31T02:49:48;10.80;;;1.43;;
20124;SDS011;10223;50.862;4.360;2023-03-31T02:58:13;8.90;;;1.67;;
20124;SDS011;10223;50.862;4.360;2023-03-31T03:04:01;7.70;;;1.70;;
20124;SDS011;10223;50.862;4.360;2023-03-31T03:06:41;11.13;;;1.80;;
20124;SDS011;10223;50.862;4.360;2023-03-31T03:09:22;11.53;;;2.23;;
20124;SDS011;10223;50.862;4.360;2023-03-31T03:12:01;9.23;;;1.77;;
20124;SDS011;10223;50.862;4.360;2023-03-31T03:14:35;11.87;;;1.50;;
20124;SDS011;10223;50.862;4.360;2023-03-31T03:17:06;10.77;;;2.03;;
20124;SDS011;10223;50.862;4.360;2023-03-31T03:19:38;10.87;;;2.07;;
20124;SDS011;10223;50.862;4.360;2023-03-31T03:22:07;9.33;;;1.73;;
20124;SDS011;10223;50.862;4.360;2023-03-31T03:24:33;14.47;;;1.90;;
20124;SDS011;10223;50.862;4.360;2023-03-31T03:27:00;10.27;;;1.57;;
20124;SDS011;10223;50.862;4.360;2023-03-31T03:29:27;11.60;;;1.70;;
20124;SDS011;10223;50.862;4.360;2023-03-31T03:31:54;9.10;;;1.80;;
20124;SDS011;10223;50.862;4.360;2023-03-31T03:34:21;13.10;;;2.30;;
20124;SDS011;10223;50.862;4.360;2023-03-31T03:36:51;11.97;;;2.33;;
20124;SDS011;10223;50.862;4.360;2023-03-31T03:39:17;5.97;;;1.03;;
20124;SDS011;10223;50.862;4.360;2023-03-31T03:41:45;11.93;;;1.87;;
20124;SDS011;10223;50.862;4.360;2023-03-31T03:44:12;8.23;;;1.47;;
20124;SDS011;10223;50.862;4.360;2023-03-31T03:46:38;6.57;;;1.33;;
20124;SDS011;10223;50.862;4.360;2023-03-31T03:49:05;7.63;;;1.20;;
20124;SDS011;10223;50.862;4.360;2023-03-31T03:51:32;5.67;;;1.00;;
20124;SDS011;10223;50.862;4.360;2023-03-31T03:54:01;1.23;;;0.50;;
20124;SDS011;10223;50.862;4.360;2023-03-31T03:56:28;1.73;;;0.60;;
20124;SDS011;10223;50.862;4.360;2023-03-31T03:58:55;1.37;;;0.47;;
20124;SDS011;10223;50.862;4.360;2023-03-31T04:01:22;5.27;;;0.60;;
20124;SDS011;10223;50.862;4.360;2023-03-31T04:03:49;2.30;;;0.70;;
20124;SDS011;10223;50.862;4.360;2023-03-31T04:06:16;0.90;;;0.30;;
20124;SDS011;10223;50.862;4.360;2023-03-31T04:08:43;1.80;;;0.30;;
20124;SDS011;10223;50.862;4.360;2023-03-31T04:11:12;0.60;;;0.30;;
20124;SDS011;10223;50.862;4.360;2023-03-31T04:13:41;1.83;;;0.50;;
20124;SDS011;10223;50.862;4.360;2023-03-31T04:16:08;2.70;;;0.77;;
20124;SDS011;10223;50.862;4.360;2023-03-31T04:18:35;3.90;;;0.73;;
20124;SDS011;10223;50.862;4.360;2023-03-31T04:21:06;2.63;;;0.70;;
20124;SDS011;10223;50.862;4.360;2023-03-31T04:23:36;4.20;;;0.87;;
20124;SDS011;10223;50.862;4.360;2023-03-31T04:26:07;5.27;;;0.90;;
20124;SDS011;10223;50.862;4.360;2023-03-31T04:28:36;4.57;;;1.40;;
20124;SDS011;10223;50.862;4.360;2023-03-31T04:31:07;4.40;;;1.10;;
20124;SDS011;10223;50.862;4.360;2023-03-31T04:33:39;5.63;;;1.20;;
20124;SDS011;10223;50.862;4.360;2023-03-31T04:36:10;3.87;;;1.00;;
20124;SDS011;10223;50.862;4.360;2023-03-31T04:38:42;5.80;;;1.60;;
20124;SDS011;10223;50.862;4.360;2023-03-31T04:41:11;8.07;;;1.90;;
20124;SDS011;10223;50.862;4.360;2023-03-31T04:43:39;7.23;;;1.67;;
20124;SDS011;10223;50.862;4.360;2023-03-31T04:46:06;15.47;;;2.20;;
20124;SDS011;10223;50.862;4.360;2023-03-31T04:48:33;8.63;;;2.33;;
20124;SDS011;10223;50.862;4.360;2023-03-31T04:51:01;9.40;;;2.43;;
20124;SDS011;10223;50.862;4.360;2023-03-31T04:53:28;9.30;;;2.40;;
20124;SDS011;10223;50.862;4.360;2023-03-31T04:55:55;9.77;;;1.97;;
20124;SDS011;10223;50.862;4.360;2023-03-31T04:58:23;8.83;;;1.70;;
20124;SDS011;10223;50.862;4.360;2023-03-31T05:00:51;9.80;;;2.30;;
20124;SDS011;10223;50.862;4.360;2023-03-31T05:03:19;9.17;;;2.43;;
20124;SDS011;10223;50.862;4.360;2023-03-31T05:05:45;12.53;;;2.70;;
20124;SDS011;10223;50.862;4.360;2023-03-31T05:08:12;12.50;;;2.53;;
20124;SDS011;10223;50.862;4.360;2023-03-31T05:10:39;15.37;;;3.20;;
20124;SDS011;10223;50.862;4.360;2023-03-31T05:13:07;16.40;;;3.07;;
20124;SDS011;10223;50.862;4.360;2023-03-31T05:15:36;10.73;;;2.80;;
20124;SDS011;10223;50.862;4.360;2023-03-31T05:18:05;14.03;;;2.90;;
20124;SDS011;10223;50.862;4.360;2023-03-31T05:20:32;8.97;;;2.33;;
20124;SDS011;10223;50.862;4.360;2023-03-31T05:22:59;20.00;;;2.63;;
20124;SDS011;10223;50.862;4.360;2023-03-31T05:25:26;14.50;;;2.43;;
20124;SDS011;10223;50.862;4.360;2023-03-31T05:27:57;17.60;;;2.87;;
20124;SDS011;10223;50.862;4.360;2023-03-31T05:30:24;12.93;;;2.40;;
20124;SDS011;10223;50.862;4.360;2023-03-31T05:32:52;8.50;;;1.83;;
20124;SDS011;10223;50.862;4.360;2023-03-31T05:35:20;15.00;;;2.40;;
20124;SDS011;10223;50.862;4.360;2023-03-31T05:37:47;10.97;;;2.00;;
20124;SDS011;10223;50.862;4.360;2023-03-31T05:40:15;11.03;;;2.57;;
20124;SDS011;10223;50.862;4.360;2023-03-31T05:42:42;17.23;;;2.80;;
20124;SDS011;10223;50.862;4.360;2023-03-31T05:45:09;12.40;;;3.10;;
20124;SDS011;10223;50.862;4.360;2023-03-31T05:47:36;10.23;;;2.30;;
20124;SDS011;10223;50.862;4.360;2023-03-31T05:50:04;9.00;;;1.93;;
20124;SDS011;10223;50.862;4.360;2023-03-31T05:52:34;14.43;;;2.43;;
20124;SDS011;10223;50.862;4.360;2023-03-31T05:55:01;19.50;;;3.70;;
20124;SDS011;10223;50.862;4.360;2023-03-31T05:57:29;10.83;;;2.63;;
20124;SDS011;10223;50.862;4.360;2023-03-31T05:59:56;14.10;;;2.60;;
20124;SDS011;10223;50.862;4.360;2023-03-31T06:02:23;10.10;;;2.93;;
20124;SDS011;10223;50.862;4.360;2023-03-31T06:04:50;11.93;;;2.30;;
20124;SDS011;10223;50.862;4.360;2023-03-31T06:07:17;11.60;;;2.30;;
20124;SDS011;10223;50.862;4.360;2023-03-31T06:09:45;13.10;;;2.40;;
20124;SDS011;10223;50.862;4.360;2023-03-31T06:12:12;18.57;;;3.20;;
20124;SDS011;10223;50.862;4.360;2023-03-31T06:14:40;12.70;;;3.53;;
20124;SDS011;10223;50.862;4.360;2023-03-31T06:17:07;13.70;;;3.67;;
20124;SDS011;10223;50.862;4.360;2023-03-31T06:19:34;17.47;;;3.43;;
20124;SDS011;10223;50.862;4.360;2023-03-31T06:22:01;15.60;;;2.77;;
20124;SDS011;10223;50.862;4.360;2023-03-31T06:24:28;13.70;;;2.87;;
20124;SDS011;10223;50.862;4.360;2023-03-31T06:26:56;14.50;;;2.73;;
20124;SDS011;10223;50.862;4.360;2023-03-31T06:29:25;11.03;;;2.70;;
20124;SDS011;10223;50.862;4.360;2023-03-31T06:31:52;13.33;;;2.20;;
20124;SDS011;10223;50.862;4.360;2023-03-31T06:34:19;10.33;;;2.80;;
20124;SDS011;10223;50.862;4.360;2023-03-31T06:36:47;12.33;;;2.93;;
20124;SDS011;10223;50.862;4.360;2023-03-31T06:39:13;17.90;;;3.43;;
20124;SDS011;10223;50.862;4.360;2023-03-31T06:41:40;12.37;;;2.97;;
20124;SDS011;10223;50.862;4.360;2023-03-31T06:44:09;14.93;;;2.53;;
20124;SDS011;10223;50.862;4.360;2023-03-31T06:46:36;17.53;;;3.13;;
20124;SDS011;10223;50.862;4.360;2023-03-31T06:49:03;22.13;;;3.73;;
20124;SDS011;10223;50.862;4.360;2023-03-31T06:51:30;11.80;;;3.20;;
20124;SDS011;10223;50.862;4.360;2023-03-31T06:53:57;19.07;;;3.03;;
20124;SDS011;10223;50.862;4.360;2023-03-31T06:56:24;13.03;;;3.23;;
20124;SDS011;10223;50.862;4.360;2023-03-31T06:58:51;16.67;;;3.30;;
20124;SDS011;10223;50.862;4.360;2023-03-31T07:01:19;16.10;;;2.80;;
20124;SDS011;10223;50.862;4.360;2023-03-31T07:03:46;15.57;;;3.10;;
20124;SDS011;10223;50.862;4.360;2023-03-31T07:06:13;14.93;;;2.97;;
20124;SDS011;10223;50.862;4.360;2023-03-31T07:08:40;12.97;;;2.87;;
20124;SDS011;10223;50.862;4.360;2023-03-31T07:11:07;18.00;;;4.00;;
20124;SDS011;10223;50.862;4.360;2023-03-31T07:13:34;18.03;;;3.27;;
20124;SDS011;10223;50.862;4.360;2023-03-31T07:16:01;19.83;;;3.53;;
20124;SDS011;10223;50.862;4.360;2023-03-31T07:18:30;17.50;;;3.00;;
20124;SDS011;10223;50.862;4.360;2023-03-31T07:20:58;16.40;;;3.23;;
20124;SDS011;10223;50.862;4.360;2023-03-31T07:23:25;16.63;;;3.60;;
20124;SDS011;10223;50.862;4.360;2023-03-31T07:25:52;17.70;;;4.20;;
20124;SDS011;10223;50.862;4.360;2023-03-31T07:28:19;22.23;;;3.67;;
20124;SDS011;10223;50.862;4.360;2023-03-31T07:30:46;11.67;;;2.70;;
20124;SDS011;10223;50.862;4.360;2023-03-31T07:33:13;21.70;;;3.70;;
20124;SDS011;10223;50.862;4.360;2023-03-31T07:35:42;16.30;;;3.17;;
20124;SDS011;10223;50.862;4.360;2023-03-31T07:38:09;9.03;;;2.03;;
20124;SDS011;10223;50.862;4.360;2023-03-31T07:40:37;21.00;;;3.27;;
20124;SDS011;10223;50.862;4.360;2023-03-31T07:43:04;19.43;;;3.90;;
20124;SDS011;10223;50.862;4.360;2023-03-31T07:45:32;18.90;;;3.47;;
20124;SDS011;10223;50.862;4.360;2023-03-31T07:47:59;22.87;;;3.80;;
20124;SDS011;10223;50.862;4.360;2023-03-31T07:50:26;24.00;;;3.80;;
20124;SDS011;10223;50.862;4.360;2023-03-31T07:52:54;21.10;;;4.00;;
20124;SDS011;10223;50.862;4.360;2023-03-31T07:55:21;15.63;;;2.93;;
20124;SDS011;10223;50.862;4.360;2023-03-31T07:57:50;20.93;;;3.50;;
20124;SDS011;10223;50.862;4.360;2023-03-31T08:00:17;23.77;;;4.17;;
20124;SDS011;10223;50.862;4.360;2023-03-31T08:02:45;16.07;;;2.87;;
20124;SDS011;10223;50.862;4.360;2023-03-31T08:05:13;22.30;;;3.57;;
20124;SDS011;10223;50.862;4.360;2023-03-31T08:07:41;21.40;;;3.77;;
20124;SDS011;10223;50.862;4.360;2023-03-31T08:10:12;22.73;;;4.27;;
20124;SDS011;10223;50.862;4.360;2023-03-31T08:12:41;18.67;;;3.57;;
20124;SDS011;10223;50.862;4.360;2023-03-31T08:15:08;25.30;;;3.13;;
20124;SDS011;10223;50.862;4.360;2023-03-31T08:17:36;19.93;;;3.10;;
20124;SDS011;10223;50.862;4.360;2023-03-31T08:20:04;13.97;;;2.67;;
20124;SDS011;10223;50.862;4.360;2023-03-31T08:22:33;16.00;;;3.47;;
20124;SDS011;10223;50.862;4.360;2023-03-31T08:25:00;18.50;;;3.73;;
20124;SDS011;10223;50.862;4.360;2023-03-31T08:27:31;20.10;;;4.23;;
20124;SDS011;10223;50.862;4.360;2023-03-31T08:29:58;15.47;;;2.70;;
20124;SDS011;10223;50.862;4.360;2023-03-31T08:32:27;18.33;;;3.53;;
20124;SDS011;10223;50.862;4.360;2023-03-31T08:34:54;23.63;;;4.03;;
20124;SDS011;10223;50.862;4.360;2023-03-31T08:37:21;16.20;;;2.70;;
20124;SDS011;10223;50.862;4.360;2023-03-31T08:39:48;19.20;;;3.13;;
20124;SDS011;10223;50.862;4.360;2023-03-31T08:42:16;16.10;;;3.33;;
20124;SDS011;10223;50.862;4.360;2023-03-31T08:44:49;14.83;;;2.13;;
20124;SDS011;10223;50.862;4.360;2023-03-31T08:47:23;23.77;;;3.63;;
20124;SDS011;10223;50.862;4.360;2023-03-31T08:49:55;11.13;;;2.37;;
20124;SDS011;10223;50.862;4.360;2023-03-31T08:52:26;19.10;;;3.00;;
20124;SDS011;10223;50.862;4.360;2023-03-31T08:54:57;17.57;;;3.00;;
20124;SDS011;10223;50.862;4.360;2023-03-31T08:57:27;21.37;;;3.70;;
20124;SDS011;10223;50.862;4.360;2023-03-31T09:00:03;18.00;;;3.93;;
20124;SDS011;10223;50.862;4.360;2023-03-31T09:02:33;21.03;;;4.00;;
20124;SDS011;10223;50.862;4.360;2023-03-31T09:05:18;22.77;;;4.47;;
20124;SDS011;10223;50.862;4.360;2023-03-31T09:08:10;26.63;;;4.47;;
20124;SDS011;10223;50.862;4.360;2023-03-31T09:10:46;19.77;;;3.80;;
20124;SDS011;10223;50.862;4.360;2023-03-31T09:13:27;23.27;;;3.80;;
20124;SDS011;10223;50.862;4.360;2023-03-31T09:16:12;17.00;;;3.47;;
20124;SDS011;10223;50.862;4.360;2023-03-31T09:18:40;16.73;;;3.17;;
20124;SDS011;10223;50.862;4.360;2023-03-31T09:21:12;21.43;;;3.07;;
20124;SDS011;10223;50.862;4.360;2023-03-31T09:23:43;16.90;;;3.30;;
20124;SDS011;10223;50.862;4.360;2023-03-31T09:26:19;18.80;;;3.13;;
20124;SDS011;10223;50.862;4.360;2023-03-31T09:28:50;19.97;;;3.87;;
20124;SDS011;10223;50.862;4.360;2023-03-31T09:31:20;15.00;;;3.33;;
20124;SDS011;10223;50.862;4.360;2023-03-31T09:33:49;20.07;;;3.47;;
20124;SDS011;10223;50.862;4.360;2023-03-31T09:36:21;18.80;;;3.53;;
20124;SDS011;10223;50.862;4.360;2023-03-31T09:38:48;20.77;;;3.60;;
20124;SDS011;10223;50.862;4.360;2023-03-31T09:41:15;20.13;;;3.63;;
20124;SDS011;10223;50.862;4.360;2023-03-31T09:43:44;20.13;;;3.97;;
20124;SDS011;10223;50.862;4.360;2023-03-31T09:46:18;22.20;;;3.70;;
20124;SDS011;10223;50.862;4.360;2023-03-31T09:48:53;21.13;;;4.40;;
20124;SDS011;10223;50.862;4.360;2023-03-31T09:51:25;22.93;;;5.23;;
20124;SDS011;10223;50.862;4.360;2023-03-31T09:53:57;19.77;;;3.63;;
20124;SDS011;10223;50.862;4.360;2023-03-31T09:56:32;24.27;;;4.70;;
20124;SDS011;10223;50.862;4.360;2023-03-31T09:59:12;23.67;;;4.27;;
20124;SDS011;10223;50.862;4.360;2023-03-31T10:01:42;24.20;;;3.97;;
20124;SDS011;10223;50.862;4.360;2023-03-31T10:04:14;22.97;;;3.60;;
20124;SDS011;10223;50.862;4.360;2023-03-31T10:06:44;21.50;;;3.40;;
20124;SDS011;10223;50.862;4.360;2023-03-31T10:09:13;15.03;;;3.40;;
20124;SDS011;10223;50.862;4.360;2023-03-31T10:11:50;27.87;;;4.37;;
20124;SDS011;10223;50.862;4.360;2023-03-31T10:14:23;24.93;;;5.00;;
20124;SDS011;10223;50.862;4.360;2023-03-31T10:16:54;24.10;;;4.40;;
20124;SDS011;10223;50.862;4.360;2023-03-31T10:19:23;20.90;;;4.00;;
20124;SDS011;10223;50.862;4.360;2023-03-31T10:21:54;24.60;;;4.37;;
20124;SDS011;10223;50.862;4.360;2023-03-31T10:24:23;13.77;;;3.90;;
20124;SDS011;10223;50.862;4.360;2023-03-31T10:26:52;15.47;;;3.20;;
20124;SDS011;10223;50.862;4.360;2023-03-31T10:29:21;21.40;;;3.33;;
20124;SDS011;10223;50.862;4.360;2023-03-31T10:31:55;19.80;;;4.17;;
20124;SDS011;10223;50.862;4.360;2023-03-31T10:34:28;11.67;;;2.77;;
20124;SDS011;10223;50.862;4.360;2023-03-31T10:36:56;22.00;;;4.77;;
20124;SDS011;10223;50.862;4.360;2023-03-31T10:39:24;23.93;;;4.67;;
20124;SDS011;10223;50.862;4.360;2023-03-31T10:41:55;21.97;;;4.40;;
20124;SDS011;10223;50.862;4.360;2023-03-31T10:44:32;19.00;;;3.23;;
20124;SDS011;10223;50.862;4.360;2023-03-31T10:47:16;19.90;;;4.03;;
20124;SDS011;10223;50.862;4.360;2023-03-31T10:49:47;14.73;;;3.73;;
20124;SDS011;10223;50.862;4.360;2023-03-31T10:52:17;20.10;;;3.83;;
20124;SDS011;10223;50.862;4.360;2023-03-31T10:54:46;14.97;;;2.73;;
20124;SDS011;10223;50.862;4.360;2023-03-31T10:57:18;17.90;;;4.13;;
20124;SDS011;10223;50.862;4.360;2023-03-31T11:00:00;17.53;;;2.67;;
20124;SDS011;10223;50.862;4.360;2023-03-31T11:05:32;20.10;;;3.80;;
20124;SDS011;10223;50.862;4.360;2023-03-31T11:08:15;16.17;;;2.87;;
20124;SDS011;10223;50.862;4.360;2023-03-31T11:10:58;19.43;;;3.80;;
20124;SDS011;10223;50.862;4.360;2023-03-31T11:13:37;30.33;;;4.23;;
20124;SDS011;10223;50.862;4.360;2023-03-31T11:16:15;19.83;;;3.77;;
20124;SDS011;10223;50.862;4.360;2023-03-31T11:18:56;19.33;;;3.43;;
20124;SDS011;10223;50.862;4.360;2023-03-31T11:21:36;19.07;;;3.87;;
20124;SDS011;10223;50.862;4.360;2023-03-31T11:24:16;19.60;;;3.50;;
20124;SDS011;10223;50.862;4.360;2023-03-31T11:26:51;24.27;;;3.43;;
20124;SDS011;10223;50.862;4.360;2023-03-31T11:29:28;15.10;;;3.60;;
20124;SDS011;10223;50.862;4.360;2023-03-31T11:32:04;16.37;;;3.70;;
20124;SDS011;10223;50.862;4.360;2023-03-31T11:34:54;15.07;;;2.63;;
20124;SDS011;10223;50.862;4.360;2023-03-31T11:37:32;15.07;;;2.70;;
20124;SDS011;10223;50.862;4.360;2023-03-31T11:40:27;13.23;;;2.57;;
20124;SDS011;10223;50.862;4.360;2023-03-31T11:43:01;17.87;;;2.73;;
20124;SDS011;10223;50.862;4.360;2023-03-31T11:45:32;10.40;;;2.17;;
20124;SDS011;10223;50.862;4.360;2023-03-31T11:48:04;6.30;;;1.67;;
20124;SDS011;10223;50.862;4.360;2023-03-31T11:50:37;16.23;;;3.07;;
20124;SDS011;10223;50.862;4.360;2023-03-31T11:53:10;12.10;;;2.13;;
20124;SDS011;10223;50.862;4.360;2023-03-31T11:55:41;16.87;;;3.03;;
20124;SDS011;10223;50.862;4.360;2023-03-31T11:58:11;12.67;;;2.80;;
20124;SDS011;10223;50.862;4.360;2023-03-31T12:00:42;17.60;;;3.03;;
20124;SDS011;10223;50.862;4.360;2023-03-31T12:03:12;12.90;;;3.20;;
20124;SDS011;10223;50.862;4.360;2023-03-31T12:05:46;13.23;;;2.87;;
20124;SDS011;10223;50.862;4.360;2023-03-31T12:08:15;14.33;;;3.17;;
20124;SDS011;10223;50.862;4.360;2023-03-31T12:10:49;12.83;;;1.97;;
20124;SDS011;10223;50.862;4.360;2023-03-31T12:13:27;15.10;;;2.37;;
20124;SDS011;10223;50.862;4.360;2023-03-31T12:16:02;17.27;;;2.80;;
20124;SDS011;10223;50.862;4.360;2023-03-31T12:18:31;10.53;;;1.93;;
20124;SDS011;10223;50.862;4.360;2023-03-31T12:21:03;11.27;;;2.40;;
20124;SDS011;10223;50.862;4.360;2023-03-31T12:23:32;13.00;;;2.03;;
20124;SDS011;10223;50.862;4.360;2023-03-31T12:26:05;10.97;;;2.60;;
20124;SDS011;10223;50.862;4.360;2023-03-31T12:28:40;12.20;;;2.20;;
20124;SDS011;10223;50.862;4.360;2023-03-31T12:31:10;13.23;;;2.40;;
20124;SDS011;10223;50.862;4.360;2023-03-31T12:33:42;9.53;;;1.73;;
20124;SDS011;10223;50.862;4.360;2023-03-31T12:36:16;9.23;;;1.73;;
20124;SDS011;10223;50.862;4.360;2023-03-31T12:38:57;8.87;;;1.93;;
20124;SDS011;10223;50.862;4.360;2023-03-31T12:41:35;8.80;;;1.57;;
20124;SDS011;10223;50.862;4.360;2023-03-31T12:44:23;13.07;;;2.23;;
20124;SDS011;10223;50.862;4.360;2023-03-31T12:47:08;10.77;;;2.23;;
20124;SDS011;10223;50.862;4.360;2023-03-31T12:49:58;14.43;;;2.40;;
20124;SDS011;10223;50.862;4.360;2023-03-31T12:52:42;10.60;;;1.07;;
20124;SDS011;10223;50.862;4.360;2023-03-31T12:55:25;7.97;;;1.47;;
20124;SDS011;10223;50.862;4.360;2023-03-31T13:01:07;4.97;;;1.17;;
20124;SDS011;10223;50.862;4.360;2023-03-31T13:03:42;5.03;;;1.00;;
20124;SDS011;10223;50.862;4.360;2023-03-31T13:09:39;10.33;;;1.53;;
20124;SDS011;10223;50.862;4.360;2023-03-31T13:12:07;3.67;;;0.70;;
20124;SDS011;10223;50.862;4.360;2023-03-31T13:14:39;13.70;;;1.87;;
20124;SDS011;10223;50.862;4.360;2023-03-31T13:17:22;8.77;;;0.93;;
20124;SDS011;10223;50.862;4.360;2023-03-31T13:19:51;2.40;;;0.80;;
20124;SDS011;10223;50.862;4.360;2023-03-31T13:22:29;9.47;;;1.10;;
20124;SDS011;10223;50.862;4.360;2023-03-31T13:30:58;7.50;;;0.73;;
20124;SDS011;10223;50.862;4.360;2023-03-31T13:33:27;1.33;;;0.60;;
20124;SDS011;10223;50.862;4.360;2023-03-31T13:39:29;1.23;;;0.50;;
20124;SDS011;10223;50.862;4.360;2023-03-31T13:42:18;4.53;;;0.70;;
20124;SDS011;10223;50.862;4.360;2023-03-31T13:45:03;1.27;;;0.50;;
20124;SDS011;10223;50.862;4.360;2023-03-31T13:47:48;2.67;;;0.57;;
20124;SDS011;10223;50.862;4.360;2023-03-31T13:50:36;5.63;;;0.67;;
20124;SDS011;10223;50.862;4.360;2023-03-31T13:53:15;4.83;;;0.87;;
20124;SDS011;10223;50.862;4.360;2023-03-31T13:56:03;1.77;;;0.70;;
20124;SDS011;10223;50.862;4.360;2023-03-31T13:58:40;3.73;;;0.83;;
20124;SDS011;10223;50.862;4.360;2023-03-31T14:01:37;3.43;;;0.67;;
20124;SDS011;10223;50.862;4.360;2023-03-31T14:07:17;4.03;;;0.80;;
20124;SDS011;10223;50.862;4.360;2023-03-31T14:09:47;1.80;;;0.70;;
20124;SDS011;10223;50.862;4.360;2023-03-31T14:12:20;3.77;;;0.90;;
20124;SDS011;10223;50.862;4.360;2023-03-31T14:14:54;0.90;;;0.40;;
20124;SDS011;10223;50.862;4.360;2023-03-31T14:17:24;2.17;;;0.67;;
20124;SDS011;10223;50.862;4.360;2023-03-31T14:20:02;2.47;;;0.90;;
20124;SDS011;10223;50.862;4.360;2023-03-31T14:22:46;1.07;;;0.67;;
20124;SDS011;10223;50.862;4.360;2023-03-31T14:25:24;1.20;;;0.50;;
20124;SDS011;10223;50.862;4.360;2023-03-31T14:28:02;1.97;;;0.70;;
20124;SDS011;10223;50.862;4.360;2023-03-31T14:30:39;3.47;;;0.60;;
20124;SDS011;10223;50.862;4.360;2023-03-31T14:33:18;0.67;;;0.40;;
20124;SDS011;10223;50.862;4.360;2023-03-31T14:35:53;1.73;;;0.60;;
20124;SDS011;10223;50.862;4.360;2023-03-31T14:38:25;4.00;;;0.97;;
20124;SDS011;10223;50.862;4.360;2023-03-31T14:40:54;2.50;;;0.70;;
20124;SDS011;10223;50.862;4.360;2023-03-31T14:43:25;0.90;;;0.40;;
20124;SDS011;10223;50.862;4.360;2023-03-31T14:45:57;2.00;;;0.57;;
20124;SDS011;10223;50.862;4.360;2023-03-31T14:48:27;3.40;;;0.70;;
20124;SDS011;10223;50.862;4.360;2023-03-31T14:50:55;1.37;;;0.57;;
20124;SDS011;10223;50.862;4.360;2023-03-31T14:53:24;3.63;;;1.07;;
20124;SDS011;10223;50.862;4.360;2023-03-31T14:55:53;1.83;;;0.60;;
20124;SDS011;10223;50.862;4.360;2023-03-31T14:58:26;1.40;;;0.70;;
20124;SDS011;10223;50.862;4.360;2023-03-31T15:00:56;3.40;;;0.67;;
20124;SDS011;10223;50.862;4.360;2023-03-31T15:03:23;6.00;;;0.57;;
20124;SDS011;10223;50.862;4.360;2023-03-31T15:05:55;3.77;;;0.63;;
20124;SDS011;10223;50.862;4.360;2023-03-31T15:08:23;1.80;;;0.57;;
20124;SDS011;10223;50.862;4.360;2023-03-31T15:10:53;1.83;;;0.50;;
20124;SDS011;10223;50.862;4.360;2023-03-31T15:13:27;2.53;;;0.50;;
20124;SDS011;10223;50.862;4.360;2023-03-31T15:15:58;2.30;;;0.60;;
20124;SDS011;10223;50.862;4.360;2023-03-31T15:18:26;6.10;;;1.00;;
20124;SDS011;10223;50.862;4.360;2023-03-31T15:20:53;1.63;;;0.67;;
20124;SDS011;10223;50.862;4.360;2023-03-31T15:23:22;2.33;;;0.70;;
20124;SDS011;10223;50.862;4.360;2023-03-31T15:25:52;4.57;;;0.50;;
20124;SDS011;10223;50.862;4.360;2023-03-31T15:28:23;2.17;;;0.57;;
20124;SDS011;10223;50.862;4.360;2023-03-31T15:30:52;5.53;;;0.70;;
20124;SDS011;10223;50.862;4.360;2023-03-31T15:33:20;4.03;;;1.17;;
20124;SDS011;10223;50.862;4.360;2023-03-31T15:35:51;5.23;;;1.13;;
20124;SDS011;10223;50.862;4.360;2023-03-31T15:38:18;4.13;;;0.97;;
20124;SDS011;10223;50.862;4.360;2023-03-31T15:40:54;4.73;;;0.80;;